sensor_id;sensor_type;location;lat;lon;timestamp;P1;durP1;ratioP1;P2;durP2;ratioP2
21833;SDS011;11079;51.092;3.458;2024-01-25T00:00:02;30.02;;;7.22;;
21833;SDS011;11079;51.092;3.458;2024-01-25T00:29:13;36.50;;;7.93;;
21833;SDS011;11079;51.092;3.458;2024-01-25T00:38:40;44.20;;;7.70;;
21833;SDS011;11079;51.092;3.458;2024-01-25T00:44:56;28.90;;;7.53;;
21833;SDS011;11079;51.092;3.458;2024-01-25T00:47:50;34.90;;;7.88;;
21833;SDS011;11079;51.092;3.458;2024-01-25T00:51:16;36.85;;;7.18;;
21833;SDS011;11079;51.092;3.458;2024-01-25T00:54:42;40.05;;;7.72;;
21833;SDS011;11079;51.092;3.458;2024-01-25T01:01:40;33.40;;;7.03;;
21833;SDS011;11079;51.092;3.458;2024-01-25T01:11:23;37.50;;;8.00;;
21833;SDS011;11079;51.092;3.458;2024-01-25T01:17:11;36.60;;;6.20;;
21833;SDS011;11079;51.092;3.458;2024-01-25T01:26:06;37.72;;;7.45;;
21833;SDS011;11079;51.092;3.458;2024-01-25T01:29:32;33.67;;;6.65;;
21833;SDS011;11079;51.092;3.458;2024-01-25T01:32:09;35.40;;;8.10;;
21833;SDS011;11079;51.092;3.458;2024-01-25T01:45:44;32.38;;;7.15;;
21833;SDS011;11079;51.092;3.458;2024-01-25T01:57:29;33.25;;;7.18;;
21833;SDS011;11079;51.092;3.458;2024-01-25T02:06:15;30.85;;;7.13;;
21833;SDS011;11079;51.092;3.458;2024-01-25T02:12:58;32.35;;;7.43;;
21833;SDS011;11079;51.092;3.458;2024-01-25T02:16:02;33.40;;;7.18;;
21833;SDS011;11079;51.092;3.458;2024-01-25T02:19:09;39.00;;;7.07;;
21833;SDS011;11079;51.092;3.458;2024-01-25T02:21:35;37.28;;;6.35;;
21833;SDS011;11079;51.092;3.458;2024-01-25T02:24:48;28.58;;;6.72;;
21833;SDS011;11079;51.092;3.458;2024-01-25T02:30:06;31.25;;;6.75;;
21833;SDS011;11079;51.092;3.458;2024-01-25T02:33:29;32.03;;;6.35;;
21833;SDS011;11079;51.092;3.458;2024-01-25T02:43:25;31.60;;;6.30;;
21833;SDS011;11079;51.092;3.458;2024-01-25T02:45:53;40.83;;;7.25;;
21833;SDS011;11079;51.092;3.458;2024-01-25T02:48:19;25.25;;;7.25;;
21833;SDS011;11079;51.092;3.458;2024-01-25T02:51:58;31.92;;;7.35;;
21833;SDS011;11079;51.092;3.458;2024-01-25T02:57:28;35.33;;;7.05;;
21833;SDS011;11079;51.092;3.458;2024-01-25T03:08:51;40.72;;;7.10;;
21833;SDS011;11079;51.092;3.458;2024-01-25T03:15:18;31.20;;;6.82;;
21833;SDS011;11079;51.092;3.458;2024-01-25T03:18:53;31.77;;;7.15;;
21833;SDS011;11079;51.092;3.458;2024-01-25T03:27:56;38.42;;;7.03;;
21833;SDS011;11079;51.092;3.458;2024-01-25T03:30:21;28.40;;;6.60;;
21833;SDS011;11079;51.092;3.458;2024-01-25T03:33:10;39.28;;;7.95;;
21833;SDS011;11079;51.092;3.458;2024-01-25T03:38:41;29.77;;;5.35;;
21833;SDS011;11079;51.092;3.458;2024-01-25T03:41:10;40.70;;;7.72;;
21833;SDS011;11079;51.092;3.458;2024-01-25T03:58:56;44.13;;;7.80;;
21833;SDS011;11079;51.092;3.458;2024-01-25T04:10:02;32.25;;;7.63;;
21833;SDS011;11079;51.092;3.458;2024-01-25T04:18:19;26.90;;;6.70;;
21833;SDS011;11079;51.092;3.458;2024-01-25T04:21:26;27.08;;;7.30;;
21833;SDS011;11079;51.092;3.458;2024-01-25T04:24:31;31.38;;;6.35;;
21833;SDS011;11079;51.092;3.458;2024-01-25T04:30:07;30.98;;;7.03;;
21833;SDS011;11079;51.092;3.458;2024-01-25T04:35:46;32.40;;;7.47;;
21833;SDS011;11079;51.092;3.458;2024-01-25T04:45:13;30.23;;;6.70;;
21833;SDS011;11079;51.092;3.458;2024-01-25T04:47:47;35.45;;;8.07;;
21833;SDS011;11079;51.092;3.458;2024-01-25T04:50:33;18.85;;;6.03;;
21833;SDS011;11079;51.092;3.458;2024-01-25T04:56:19;33.60;;;7.13;;
21833;SDS011;11079;51.092;3.458;2024-01-25T05:02:43;38.90;;;8.25;;
21833;SDS011;11079;51.092;3.458;2024-01-25T05:09:39;29.67;;;7.43;;
21833;SDS011;11079;51.092;3.458;2024-01-25T05:12:04;32.60;;;7.90;;
21833;SDS011;11079;51.092;3.458;2024-01-25T05:18:23;35.05;;;8.55;;
21833;SDS011;11079;51.092;3.458;2024-01-25T05:20:49;38.55;;;7.88;;
21833;SDS011;11079;51.092;3.458;2024-01-25T05:27:00;33.47;;;9.35;;
21833;SDS011;11079;51.092;3.458;2024-01-25T05:29:37;33.60;;;7.78;;
21833;SDS011;11079;51.092;3.458;2024-01-25T05:32:06;38.90;;;8.18;;
21833;SDS011;11079;51.092;3.458;2024-01-25T05:37:29;31.05;;;7.85;;
21833;SDS011;11079;51.092;3.458;2024-01-25T05:40:46;40.47;;;9.15;;
21833;SDS011;11079;51.092;3.458;2024-01-25T05:46:13;36.63;;;7.93;;
21833;SDS011;11079;51.092;3.458;2024-01-25T05:48:44;42.05;;;9.05;;
21833;SDS011;11079;51.092;3.458;2024-01-25T05:51:21;45.05;;;10.00;;
21833;SDS011;11079;51.092;3.458;2024-01-25T05:54:03;44.03;;;10.40;;
21833;SDS011;11079;51.092;3.458;2024-01-25T05:56:31;39.78;;;8.77;;
21833;SDS011;11079;51.092;3.458;2024-01-25T05:58:57;40.30;;;9.10;;
21833;SDS011;11079;51.092;3.458;2024-01-25T06:01:23;36.03;;;9.02;;
21833;SDS011;11079;51.092;3.458;2024-01-25T06:03:48;33.20;;;9.48;;
21833;SDS011;11079;51.092;3.458;2024-01-25T06:06:14;38.17;;;9.50;;
21833;SDS011;11079;51.092;3.458;2024-01-25T06:08:40;39.58;;;9.52;;
21833;SDS011;11079;51.092;3.458;2024-01-25T06:11:06;44.28;;;10.73;;
21833;SDS011;11079;51.092;3.458;2024-01-25T06:13:31;47.97;;;9.43;;
21833;SDS011;11079;51.092;3.458;2024-01-25T06:15:57;36.00;;;9.00;;
21833;SDS011;11079;51.092;3.458;2024-01-25T06:18:34;43.03;;;9.38;;
21833;SDS011;11079;51.092;3.458;2024-01-25T06:21:53;43.40;;;11.25;;
21833;SDS011;11079;51.092;3.458;2024-01-25T06:24:20;44.75;;;11.07;;
21833;SDS011;11079;51.092;3.458;2024-01-25T06:26:47;41.63;;;10.95;;
21833;SDS011;11079;51.092;3.458;2024-01-25T06:29:17;42.05;;;9.50;;
21833;SDS011;11079;51.092;3.458;2024-01-25T06:31:46;44.10;;;10.85;;
21833;SDS011;11079;51.092;3.458;2024-01-25T06:34:13;35.53;;;9.48;;
21833;SDS011;11079;51.092;3.458;2024-01-25T06:37:18;39.72;;;8.43;;
21833;SDS011;11079;51.092;3.458;2024-01-25T06:39:52;40.05;;;9.55;;
21833;SDS011;11079;51.092;3.458;2024-01-25T06:42:23;36.90;;;9.13;;
21833;SDS011;11079;51.092;3.458;2024-01-25T06:47:27;48.33;;;11.38;;
21833;SDS011;11079;51.092;3.458;2024-01-25T06:49:56;46.45;;;11.25;;
21833;SDS011;11079;51.092;3.458;2024-01-25T06:55:40;52.50;;;11.57;;
21833;SDS011;11079;51.092;3.458;2024-01-25T07:06:55;41.92;;;11.82;;
21833;SDS011;11079;51.092;3.458;2024-01-25T07:09:35;42.28;;;10.60;;
21833;SDS011;11079;51.092;3.458;2024-01-25T07:12:36;48.55;;;12.50;;
21833;SDS011;11079;51.092;3.458;2024-01-25T07:15:43;36.15;;;10.45;;
21833;SDS011;11079;51.092;3.458;2024-01-25T07:18:08;35.42;;;11.38;;
21833;SDS011;11079;51.092;3.458;2024-01-25T07:20:36;36.25;;;11.70;;
21833;SDS011;11079;51.092;3.458;2024-01-25T07:23:01;51.70;;;12.73;;
21833;SDS011;11079;51.092;3.458;2024-01-25T07:25:27;40.28;;;12.25;;
21833;SDS011;11079;51.092;3.458;2024-01-25T07:27:53;37.10;;;12.82;;
21833;SDS011;11079;51.092;3.458;2024-01-25T07:30:18;33.55;;;12.40;;
21833;SDS011;11079;51.092;3.458;2024-01-25T07:32:44;55.25;;;13.35;;
21833;SDS011;11079;51.092;3.458;2024-01-25T07:35:11;32.25;;;11.68;;
21833;SDS011;11079;51.092;3.458;2024-01-25T07:37:38;34.88;;;12.05;;
21833;SDS011;11079;51.092;3.458;2024-01-25T07:40:05;41.17;;;12.57;;
21833;SDS011;11079;51.092;3.458;2024-01-25T07:42:32;36.58;;;13.45;;
21833;SDS011;11079;51.092;3.458;2024-01-25T07:44:58;48.05;;;14.18;;
21833;SDS011;11079;51.092;3.458;2024-01-25T07:47:24;45.45;;;12.57;;
21833;SDS011;11079;51.092;3.458;2024-01-25T07:49:49;43.08;;;13.82;;
21833;SDS011;11079;51.092;3.458;2024-01-25T07:52:15;49.35;;;15.93;;
21833;SDS011;11079;51.092;3.458;2024-01-25T07:54:41;36.38;;;13.32;;
21833;SDS011;11079;51.092;3.458;2024-01-25T07:57:06;29.58;;;12.15;;
21833;SDS011;11079;51.092;3.458;2024-01-25T07:59:32;24.23;;;10.77;;
21833;SDS011;11079;51.092;3.458;2024-01-25T08:01:58;43.10;;;12.55;;
21833;SDS011;11079;51.092;3.458;2024-01-25T08:04:24;45.08;;;13.68;;
21833;SDS011;11079;51.092;3.458;2024-01-25T08:06:50;46.40;;;13.00;;
21833;SDS011;11079;51.092;3.458;2024-01-25T08:09:17;41.38;;;14.13;;
21833;SDS011;11079;51.092;3.458;2024-01-25T08:11:43;41.65;;;13.25;;
21833;SDS011;11079;51.092;3.458;2024-01-25T08:14:09;50.75;;;13.88;;
21833;SDS011;11079;51.092;3.458;2024-01-25T08:16:37;39.00;;;13.43;;
21833;SDS011;11079;51.092;3.458;2024-01-25T08:19:03;32.10;;;13.77;;
21833;SDS011;11079;51.092;3.458;2024-01-25T08:21:29;28.83;;;12.25;;
21833;SDS011;11079;51.092;3.458;2024-01-25T08:23:55;29.95;;;11.68;;
21833;SDS011;11079;51.092;3.458;2024-01-25T08:26:21;39.38;;;13.63;;
21833;SDS011;11079;51.092;3.458;2024-01-25T08:28:46;30.67;;;12.30;;
21833;SDS011;11079;51.092;3.458;2024-01-25T08:31:12;45.25;;;14.82;;
21833;SDS011;11079;51.092;3.458;2024-01-25T08:33:38;48.83;;;14.40;;
21833;SDS011;11079;51.092;3.458;2024-01-25T08:36:09;32.83;;;13.90;;
21833;SDS011;11079;51.092;3.458;2024-01-25T08:38:36;47.08;;;14.27;;
21833;SDS011;11079;51.092;3.458;2024-01-25T08:41:03;37.20;;;13.75;;
21833;SDS011;11079;51.092;3.458;2024-01-25T08:43:29;33.22;;;13.02;;
21833;SDS011;11079;51.092;3.458;2024-01-25T08:45:55;39.55;;;13.63;;
21833;SDS011;11079;51.092;3.458;2024-01-25T08:48:20;38.55;;;13.45;;
21833;SDS011;11079;51.092;3.458;2024-01-25T08:50:46;38.38;;;12.85;;
21833;SDS011;11079;51.092;3.458;2024-01-25T08:53:13;36.72;;;16.92;;
21833;SDS011;11079;51.092;3.458;2024-01-25T08:55:39;36.33;;;15.20;;
21833;SDS011;11079;51.092;3.458;2024-01-25T08:58:05;30.15;;;11.90;;
21833;SDS011;11079;51.092;3.458;2024-01-25T09:00:31;40.85;;;12.52;;
21833;SDS011;11079;51.092;3.458;2024-01-25T09:02:56;34.72;;;12.60;;
21833;SDS011;11079;51.092;3.458;2024-01-25T09:05:22;31.42;;;12.52;;
21833;SDS011;11079;51.092;3.458;2024-01-25T09:07:48;35.13;;;12.48;;
21833;SDS011;11079;51.092;3.458;2024-01-25T09:10:15;35.50;;;11.57;;
21833;SDS011;11079;51.092;3.458;2024-01-25T09:12:41;30.63;;;13.63;;
21833;SDS011;11079;51.092;3.458;2024-01-25T09:15:07;26.52;;;12.30;;
21833;SDS011;11079;51.092;3.458;2024-01-25T09:17:33;29.92;;;13.40;;
21833;SDS011;11079;51.092;3.458;2024-01-25T09:19:59;32.45;;;12.57;;
21833;SDS011;11079;51.092;3.458;2024-01-25T09:22:25;32.53;;;14.18;;
21833;SDS011;11079;51.092;3.458;2024-01-25T09:24:51;29.15;;;13.68;;
21833;SDS011;11079;51.092;3.458;2024-01-25T09:27:16;33.00;;;13.48;;
21833;SDS011;11079;51.092;3.458;2024-01-25T09:29:42;28.27;;;12.10;;
21833;SDS011;11079;51.092;3.458;2024-01-25T09:32:08;28.70;;;11.45;;
21833;SDS011;11079;51.092;3.458;2024-01-25T09:34:38;30.13;;;13.65;;
21833;SDS011;11079;51.092;3.458;2024-01-25T09:37:07;29.90;;;12.85;;
21833;SDS011;11079;51.092;3.458;2024-01-25T09:39:32;31.55;;;14.13;;
21833;SDS011;11079;51.092;3.458;2024-01-25T09:42:00;31.27;;;13.35;;
21833;SDS011;11079;51.092;3.458;2024-01-25T09:44:28;30.80;;;14.20;;
21833;SDS011;11079;51.092;3.458;2024-01-25T09:46:53;31.23;;;13.95;;
21833;SDS011;11079;51.092;3.458;2024-01-25T09:49:19;30.75;;;12.43;;
21833;SDS011;11079;51.092;3.458;2024-01-25T09:51:45;34.30;;;14.27;;
21833;SDS011;11079;51.092;3.458;2024-01-25T09:54:13;34.08;;;15.93;;
21833;SDS011;11079;51.092;3.458;2024-01-25T09:56:40;32.30;;;14.38;;
21833;SDS011;11079;51.092;3.458;2024-01-25T09:59:06;35.83;;;16.15;;
21833;SDS011;11079;51.092;3.458;2024-01-25T10:01:33;35.30;;;15.00;;
21833;SDS011;11079;51.092;3.458;2024-01-25T10:03:59;40.22;;;15.43;;
21833;SDS011;11079;51.092;3.458;2024-01-25T10:06:25;36.50;;;14.75;;
21833;SDS011;11079;51.092;3.458;2024-01-25T10:08:50;37.55;;;14.80;;
21833;SDS011;11079;51.092;3.458;2024-01-25T10:11:18;43.17;;;15.75;;
21833;SDS011;11079;51.092;3.458;2024-01-25T10:13:44;54.22;;;22.00;;
21833;SDS011;11079;51.092;3.458;2024-01-25T10:16:14;43.70;;;16.80;;
21833;SDS011;11079;51.092;3.458;2024-01-25T10:18:45;36.17;;;15.38;;
21833;SDS011;11079;51.092;3.458;2024-01-25T10:21:12;34.10;;;16.10;;
21833;SDS011;11079;51.092;3.458;2024-01-25T10:23:39;39.25;;;15.35;;
21833;SDS011;11079;51.092;3.458;2024-01-25T10:26:07;37.90;;;13.82;;
21833;SDS011;11079;51.092;3.458;2024-01-25T10:28:33;35.42;;;14.15;;
21833;SDS011;11079;51.092;3.458;2024-01-25T10:30:59;38.92;;;13.73;;
21833;SDS011;11079;51.092;3.458;2024-01-25T10:33:35;42.55;;;14.80;;
21833;SDS011;11079;51.092;3.458;2024-01-25T10:36:04;33.42;;;12.43;;
21833;SDS011;11079;51.092;3.458;2024-01-25T10:38:34;34.13;;;12.07;;
21833;SDS011;11079;51.092;3.458;2024-01-25T10:41:01;36.88;;;15.20;;
21833;SDS011;11079;51.092;3.458;2024-01-25T10:43:28;32.65;;;12.35;;
21833;SDS011;11079;51.092;3.458;2024-01-25T10:45:57;32.35;;;12.20;;
21833;SDS011;11079;51.092;3.458;2024-01-25T10:48:24;29.77;;;12.02;;
21833;SDS011;11079;51.092;3.458;2024-01-25T10:50:51;32.03;;;11.75;;
21833;SDS011;11079;51.092;3.458;2024-01-25T10:53:18;38.88;;;11.05;;
21833;SDS011;11079;51.092;3.458;2024-01-25T10:55:45;28.85;;;11.00;;
21833;SDS011;11079;51.092;3.458;2024-01-25T10:58:15;26.60;;;10.50;;
21833;SDS011;11079;51.092;3.458;2024-01-25T11:00:51;24.70;;;10.18;;
21833;SDS011;11079;51.092;3.458;2024-01-25T11:03:45;24.77;;;9.75;;
21833;SDS011;11079;51.092;3.458;2024-01-25T11:06:14;25.25;;;9.90;;
21833;SDS011;11079;51.092;3.458;2024-01-25T11:09:06;28.67;;;10.32;;
21833;SDS011;11079;51.092;3.458;2024-01-25T11:11:44;30.33;;;10.55;;
21833;SDS011;11079;51.092;3.458;2024-01-25T11:17:55;22.25;;;9.77;;
21833;SDS011;11079;51.092;3.458;2024-01-25T11:20:28;21.77;;;8.95;;
21833;SDS011;11079;51.092;3.458;2024-01-25T11:25:30;28.30;;;10.27;;
21833;SDS011;11079;51.092;3.458;2024-01-25T11:27:57;21.60;;;8.93;;
21833;SDS011;11079;51.092;3.458;2024-01-25T11:30:28;21.73;;;10.50;;
21833;SDS011;11079;51.092;3.458;2024-01-25T11:32:54;25.15;;;10.75;;
21833;SDS011;11079;51.092;3.458;2024-01-25T11:35:32;27.30;;;11.07;;
21833;SDS011;11079;51.092;3.458;2024-01-25T11:37:58;20.75;;;11.15;;
21833;SDS011;11079;51.092;3.458;2024-01-25T11:40:25;22.23;;;9.40;;
21833;SDS011;11079;51.092;3.458;2024-01-25T11:42:52;18.38;;;8.35;;
21833;SDS011;11079;51.092;3.458;2024-01-25T11:45:35;23.48;;;10.05;;
21833;SDS011;11079;51.092;3.458;2024-01-25T11:48:07;16.05;;;9.38;;
21833;SDS011;11079;51.092;3.458;2024-01-25T11:50:36;15.85;;;8.52;;
21833;SDS011;11079;51.092;3.458;2024-01-25T11:53:02;24.48;;;9.18;;
21833;SDS011;11079;51.092;3.458;2024-01-25T11:55:30;21.92;;;9.57;;
21833;SDS011;11079;51.092;3.458;2024-01-25T11:57:55;12.52;;;7.72;;
21833;SDS011;11079;51.092;3.458;2024-01-25T12:00:21;19.58;;;8.68;;
21833;SDS011;11079;51.092;3.458;2024-01-25T12:02:55;15.35;;;8.80;;
21833;SDS011;11079;51.092;3.458;2024-01-25T12:05:21;24.35;;;9.77;;
21833;SDS011;11079;51.092;3.458;2024-01-25T12:07:48;15.20;;;8.63;;
21833;SDS011;11079;51.092;3.458;2024-01-25T12:10:17;22.58;;;9.73;;
21833;SDS011;11079;51.092;3.458;2024-01-25T12:12:42;17.17;;;9.27;;
21833;SDS011;11079;51.092;3.458;2024-01-25T12:15:09;16.90;;;8.82;;
21833;SDS011;11079;51.092;3.458;2024-01-25T12:17:35;16.23;;;8.80;;
21833;SDS011;11079;51.092;3.458;2024-01-25T12:20:08;16.45;;;9.98;;
21833;SDS011;11079;51.092;3.458;2024-01-25T12:22:38;16.95;;;8.95;;
21833;SDS011;11079;51.092;3.458;2024-01-25T12:25:11;17.05;;;8.90;;
21833;SDS011;11079;51.092;3.458;2024-01-25T12:27:39;20.70;;;10.73;;
21833;SDS011;11079;51.092;3.458;2024-01-25T12:30:14;16.00;;;9.30;;
21833;SDS011;11079;51.092;3.458;2024-01-25T12:32:40;17.80;;;9.30;;
21833;SDS011;11079;51.092;3.458;2024-01-25T12:35:07;16.40;;;8.93;;
21833;SDS011;11079;51.092;3.458;2024-01-25T12:37:35;14.40;;;8.85;;
21833;SDS011;11079;51.092;3.458;2024-01-25T12:40:00;19.42;;;10.00;;
21833;SDS011;11079;51.092;3.458;2024-01-25T12:42:27;11.25;;;7.97;;
21833;SDS011;11079;51.092;3.458;2024-01-25T12:44:56;14.20;;;10.02;;
21833;SDS011;11079;51.092;3.458;2024-01-25T12:47:22;13.90;;;9.27;;
21833;SDS011;11079;51.092;3.458;2024-01-25T12:49:48;13.25;;;8.38;;
21833;SDS011;11079;51.092;3.458;2024-01-25T12:52:14;14.27;;;9.18;;
21833;SDS011;11079;51.092;3.458;2024-01-25T12:54:41;20.02;;;11.55;;
21833;SDS011;11079;51.092;3.458;2024-01-25T12:57:07;14.93;;;9.55;;
21833;SDS011;11079;51.092;3.458;2024-01-25T12:59:33;14.23;;;8.98;;
21833;SDS011;11079;51.092;3.458;2024-01-25T13:01:59;17.27;;;10.38;;
21833;SDS011;11079;51.092;3.458;2024-01-25T13:04:25;12.77;;;9.00;;
21833;SDS011;11079;51.092;3.458;2024-01-25T13:06:52;15.57;;;9.52;;
21833;SDS011;11079;51.092;3.458;2024-01-25T13:09:22;13.52;;;9.02;;
21833;SDS011;11079;51.092;3.458;2024-01-25T13:11:48;16.20;;;10.45;;
21833;SDS011;11079;51.092;3.458;2024-01-25T13:14:14;17.77;;;11.25;;
21833;SDS011;11079;51.092;3.458;2024-01-25T13:16:42;19.77;;;11.18;;
21833;SDS011;11079;51.092;3.458;2024-01-25T13:19:08;20.35;;;12.38;;
21833;SDS011;11079;51.092;3.458;2024-01-25T13:21:34;20.95;;;13.18;;
21833;SDS011;11079;51.092;3.458;2024-01-25T13:24:00;18.52;;;12.85;;
21833;SDS011;11079;51.092;3.458;2024-01-25T13:26:26;21.48;;;15.57;;
21833;SDS011;11079;51.092;3.458;2024-01-25T13:28:52;24.33;;;16.20;;
21833;SDS011;11079;51.092;3.458;2024-01-25T13:31:17;29.92;;;16.38;;
21833;SDS011;11079;51.092;3.458;2024-01-25T13:33:43;30.75;;;16.77;;
21833;SDS011;11079;51.092;3.458;2024-01-25T13:36:10;31.98;;;16.67;;
21833;SDS011;11079;51.092;3.458;2024-01-25T13:38:41;29.90;;;16.38;;
21833;SDS011;11079;51.092;3.458;2024-01-25T13:41:08;33.70;;;17.55;;
21833;SDS011;11079;51.092;3.458;2024-01-25T13:43:34;27.83;;;15.40;;
21833;SDS011;11079;51.092;3.458;2024-01-25T13:45:59;37.72;;;17.85;;
21833;SDS011;11079;51.092;3.458;2024-01-25T13:48:25;36.25;;;19.13;;
21833;SDS011;11079;51.092;3.458;2024-01-25T13:50:51;33.55;;;18.23;;
21833;SDS011;11079;51.092;3.458;2024-01-25T13:53:19;35.45;;;18.63;;
21833;SDS011;11079;51.092;3.458;2024-01-25T13:55:44;28.55;;;17.88;;
21833;SDS011;11079;51.092;3.458;2024-01-25T13:58:10;30.33;;;17.27;;
21833;SDS011;11079;51.092;3.458;2024-01-25T14:00:36;31.80;;;17.05;;
21833;SDS011;11079;51.092;3.458;2024-01-25T14:03:03;33.65;;;18.40;;
21833;SDS011;11079;51.092;3.458;2024-01-25T14:05:29;37.55;;;16.52;;
21833;SDS011;11079;51.092;3.458;2024-01-25T14:07:55;27.73;;;15.77;;
21833;SDS011;11079;51.092;3.458;2024-01-25T14:10:20;28.17;;;17.13;;
21833;SDS011;11079;51.092;3.458;2024-01-25T14:12:46;29.77;;;16.45;;
21833;SDS011;11079;51.092;3.458;2024-01-25T14:15:12;33.50;;;16.95;;
21833;SDS011;11079;51.092;3.458;2024-01-25T14:17:39;30.65;;;16.40;;
21833;SDS011;11079;51.092;3.458;2024-01-25T14:20:08;34.60;;;16.42;;
21833;SDS011;11079;51.092;3.458;2024-01-25T14:22:34;35.17;;;16.83;;
21833;SDS011;11079;51.092;3.458;2024-01-25T14:25:00;31.63;;;15.52;;
21833;SDS011;11079;51.092;3.458;2024-01-25T14:27:26;34.80;;;15.68;;
21833;SDS011;11079;51.092;3.458;2024-01-25T14:29:52;29.58;;;15.68;;
21833;SDS011;11079;51.092;3.458;2024-01-25T14:32:18;30.13;;;15.15;;
21833;SDS011;11079;51.092;3.458;2024-01-25T14:34:46;50.10;;;18.58;;
21833;SDS011;11079;51.092;3.458;2024-01-25T14:37:12;59.38;;;20.15;;
21833;SDS011;11079;51.092;3.458;2024-01-25T14:39:38;109.53;;;28.52;;
21833;SDS011;11079;51.092;3.458;2024-01-25T14:42:08;56.83;;;18.67;;
21833;SDS011;11079;51.092;3.458;2024-01-25T14:44:37;33.55;;;16.33;;
21833;SDS011;11079;51.092;3.458;2024-01-25T14:47:03;30.35;;;15.32;;
21833;SDS011;11079;51.092;3.458;2024-01-25T14:49:29;30.17;;;15.27;;
21833;SDS011;11079;51.092;3.458;2024-01-25T14:51:55;26.10;;;13.38;;
21833;SDS011;11079;51.092;3.458;2024-01-25T14:54:20;24.17;;;14.48;;
21833;SDS011;11079;51.092;3.458;2024-01-25T14:56:46;27.17;;;13.63;;
21833;SDS011;11079;51.092;3.458;2024-01-25T14:59:15;26.88;;;13.23;;
21833;SDS011;11079;51.092;3.458;2024-01-25T15:01:41;27.20;;;14.55;;
21833;SDS011;11079;51.092;3.458;2024-01-25T15:04:07;27.52;;;13.52;;
21833;SDS011;11079;51.092;3.458;2024-01-25T15:06:36;22.77;;;12.38;;
21833;SDS011;11079;51.092;3.458;2024-01-25T15:09:44;25.10;;;13.77;;
21833;SDS011;11079;51.092;3.458;2024-01-25T15:14:48;27.98;;;14.85;;
21833;SDS011;11079;51.092;3.458;2024-01-25T15:17:14;26.45;;;14.35;;
21833;SDS011;11079;51.092;3.458;2024-01-25T15:19:39;27.65;;;14.80;;
21833;SDS011;11079;51.092;3.458;2024-01-25T15:22:05;28.30;;;14.60;;
21833;SDS011;11079;51.092;3.458;2024-01-25T15:24:32;29.85;;;16.17;;
21833;SDS011;11079;51.092;3.458;2024-01-25T15:26:58;28.63;;;16.42;;
21833;SDS011;11079;51.092;3.458;2024-01-25T15:29:24;29.17;;;15.18;;
21833;SDS011;11079;51.092;3.458;2024-01-25T15:31:50;32.63;;;16.92;;
21833;SDS011;11079;51.092;3.458;2024-01-25T15:34:15;30.67;;;16.55;;
21833;SDS011;11079;51.092;3.458;2024-01-25T15:36:41;31.73;;;17.40;;
21833;SDS011;11079;51.092;3.458;2024-01-25T15:39:09;29.55;;;15.85;;
21833;SDS011;11079;51.092;3.458;2024-01-25T15:41:36;35.95;;;17.10;;
21833;SDS011;11079;51.092;3.458;2024-01-25T15:44:02;31.20;;;16.15;;
21833;SDS011;11079;51.092;3.458;2024-01-25T15:46:29;37.33;;;17.88;;
21833;SDS011;11079;51.092;3.458;2024-01-25T15:48:55;31.55;;;16.85;;
21833;SDS011;11079;51.092;3.458;2024-01-25T15:51:21;32.60;;;16.38;;
21833;SDS011;11079;51.092;3.458;2024-01-25T15:53:49;36.03;;;15.25;;
21833;SDS011;11079;51.092;3.458;2024-01-25T15:56:14;34.40;;;16.85;;
21833;SDS011;11079;51.092;3.458;2024-01-25T15:58:40;34.10;;;16.15;;
21833;SDS011;11079;51.092;3.458;2024-01-25T16:01:06;29.33;;;15.23;;
21833;SDS011;11079;51.092;3.458;2024-01-25T16:03:32;32.63;;;15.65;;
21833;SDS011;11079;51.092;3.458;2024-01-25T16:05:59;32.97;;;15.50;;
21833;SDS011;11079;51.092;3.458;2024-01-25T16:08:29;37.42;;;16.90;;
21833;SDS011;11079;51.092;3.458;2024-01-25T16:10:54;31.63;;;16.13;;
21833;SDS011;11079;51.092;3.458;2024-01-25T16:13:20;31.13;;;15.75;;
21833;SDS011;11079;51.092;3.458;2024-01-25T16:15:46;37.90;;;16.50;;
21833;SDS011;11079;51.092;3.458;2024-01-25T16:18:12;29.27;;;15.10;;
21833;SDS011;11079;51.092;3.458;2024-01-25T16:20:38;33.90;;;15.65;;
21833;SDS011;11079;51.092;3.458;2024-01-25T16:23:03;31.33;;;15.27;;
21833;SDS011;11079;51.092;3.458;2024-01-25T16:25:29;30.85;;;15.07;;
21833;SDS011;11079;51.092;3.458;2024-01-25T16:27:56;35.05;;;16.25;;
21833;SDS011;11079;51.092;3.458;2024-01-25T16:30:23;36.63;;;17.70;;
21833;SDS011;11079;51.092;3.458;2024-01-25T16:32:49;36.05;;;17.77;;
21833;SDS011;11079;51.092;3.458;2024-01-25T16:35:15;34.90;;;17.98;;
21833;SDS011;11079;51.092;3.458;2024-01-25T16:37:50;29.38;;;16.85;;
21833;SDS011;11079;51.092;3.458;2024-01-25T16:43:21;33.40;;;17.83;;
21833;SDS011;11079;51.092;3.458;2024-01-25T16:53:48;32.80;;;19.23;;
21833;SDS011;11079;51.092;3.458;2024-01-25T16:59:17;34.58;;;20.10;;
21833;SDS011;11079;51.092;3.458;2024-01-25T17:01:43;36.92;;;19.92;;
21833;SDS011;11079;51.092;3.458;2024-01-25T17:04:12;40.13;;;19.75;;
21833;SDS011;11079;51.092;3.458;2024-01-25T17:07:13;43.30;;;22.23;;
21833;SDS011;11079;51.092;3.458;2024-01-25T17:09:39;30.90;;;19.08;;
21833;SDS011;11079;51.092;3.458;2024-01-25T17:12:05;38.97;;;18.52;;
21833;SDS011;11079;51.092;3.458;2024-01-25T17:14:31;40.72;;;18.83;;
21833;SDS011;11079;51.092;3.458;2024-01-25T17:16:57;42.00;;;18.58;;
21833;SDS011;11079;51.092;3.458;2024-01-25T17:19:23;35.60;;;18.45;;
21833;SDS011;11079;51.092;3.458;2024-01-25T17:21:49;35.65;;;17.55;;
21833;SDS011;11079;51.092;3.458;2024-01-25T17:24:16;36.95;;;16.85;;
21833;SDS011;11079;51.092;3.458;2024-01-25T17:26:47;33.80;;;19.85;;
21833;SDS011;11079;51.092;3.458;2024-01-25T17:29:12;30.70;;;18.58;;
21833;SDS011;11079;51.092;3.458;2024-01-25T17:31:39;38.05;;;19.65;;
21833;SDS011;11079;51.092;3.458;2024-01-25T17:34:05;40.40;;;20.00;;
21833;SDS011;11079;51.092;3.458;2024-01-25T17:36:30;40.20;;;18.75;;
21833;SDS011;11079;51.092;3.458;2024-01-25T17:38:56;38.67;;;20.75;;
21833;SDS011;11079;51.092;3.458;2024-01-25T17:41:22;35.47;;;18.63;;
21833;SDS011;11079;51.092;3.458;2024-01-25T17:43:47;34.78;;;18.40;;
21833;SDS011;11079;51.092;3.458;2024-01-25T17:46:13;38.38;;;18.90;;
21833;SDS011;11079;51.092;3.458;2024-01-25T17:48:40;40.67;;;19.58;;
21833;SDS011;11079;51.092;3.458;2024-01-25T17:51:05;38.20;;;19.75;;
21833;SDS011;11079;51.092;3.458;2024-01-25T17:53:31;36.42;;;17.60;;
21833;SDS011;11079;51.092;3.458;2024-01-25T17:55:59;36.95;;;16.38;;
21833;SDS011;11079;51.092;3.458;2024-01-25T17:58:25;32.38;;;15.90;;
21833;SDS011;11079;51.092;3.458;2024-01-25T18:00:52;33.60;;;15.48;;
21833;SDS011;11079;51.092;3.458;2024-01-25T18:03:19;29.20;;;16.35;;
21833;SDS011;11079;51.092;3.458;2024-01-25T18:05:44;29.77;;;14.88;;
21833;SDS011;11079;51.092;3.458;2024-01-25T18:08:10;26.55;;;15.73;;
21833;SDS011;11079;51.092;3.458;2024-01-25T18:10:36;28.45;;;14.00;;
21833;SDS011;11079;51.092;3.458;2024-01-25T18:13:02;24.02;;;13.73;;
21833;SDS011;11079;51.092;3.458;2024-01-25T18:15:28;20.00;;;11.70;;
21833;SDS011;11079;51.092;3.458;2024-01-25T18:17:53;15.50;;;10.10;;
21833;SDS011;11079;51.092;3.458;2024-01-25T18:20:19;15.68;;;9.95;;
21833;SDS011;11079;51.092;3.458;2024-01-25T18:22:45;17.10;;;9.27;;
21833;SDS011;11079;51.092;3.458;2024-01-25T18:25:14;12.85;;;8.57;;
21833;SDS011;11079;51.092;3.458;2024-01-25T18:27:41;14.85;;;8.35;;
21833;SDS011;11079;51.092;3.458;2024-01-25T18:30:13;11.73;;;8.27;;
21833;SDS011;11079;51.092;3.458;2024-01-25T18:32:39;11.48;;;8.02;;